sensor_id;sensor_type;location;lat;lon;timestamp;pressure;altitude;pressure_sealevel;temperature;humidity
64679;BME280;51094;53.864;27.676;2023-04-27T00:01:44;98578.94;;;5.97;76.14
64679;BME280;51094;53.864;27.676;2023-04-27T00:04:14;98574.13;;;6.06;75.04
64679;BME280;51094;53.864;27.676;2023-04-27T00:06:42;98583.00;;;6.02;74.34
64679;BME280;51094;53.864;27.676;2023-04-27T00:09:12;98582.84;;;5.90;74.68
64679;BME280;51094;53.864;27.676;2023-04-27T00:11:39;98594.16;;;6.02;75.96
64679;BME280;51094;53.864;27.676;2023-04-27T00:14:08;98520.34;;;5.44;74.26
64679;BME280;51094;53.864;27.676;2023-04-27T00:16:35;98581.34;;;5.72;74.00
64679;BME280;51094;53.864;27.676;2023-04-27T00:19:02;98501.69;;;5.12;74.57
64679;BME280;51094;53.864;27.676;2023-04-27T00:21:32;98594.00;;;5.62;74.80
64679;BME280;51094;53.864;27.676;2023-04-27T00:24:00;98601.25;;;5.70;75.75
64679;BME280;51094;53.864;27.676;2023-04-27T00:26:27;98558.34;;;5.55;75.55
64679;BME280;51094;53.864;27.676;2023-04-27T00:28:58;98599.78;;;5.94;75.15
64679;BME280;51094;53.864;27.676;2023-04-27T00:31:25;98551.19;;;5.60;74.89
64679;BME280;51094;53.864;27.676;2023-04-27T00:33:51;98607.97;;;5.73;73.71
64679;BME280;51094;53.864;27.676;2023-04-27T00:36:18;98577.59;;;5.49;75.30
64679;BME280;51094;53.864;27.676;2023-04-27T00:38:50;98595.28;;;5.55;74.34
64679;BME280;51094;53.864;27.676;2023-04-27T00:41:18;98591.06;;;5.40;74.30
64679;BME280;51094;53.864;27.676;2023-04-27T00:43:46;98560.38;;;5.21;75.69
64679;BME280;51094;53.864;27.676;2023-04-27T00:46:13;98613.97;;;5.73;75.31
64679;BME280;51094;53.864;27.676;2023-04-27T00:48:41;98611.19;;;5.76;75.23
64679;BME280;51094;53.864;27.676;2023-04-27T00:51:08;98616.06;;;5.81;74.87
64679;BME280;51094;53.864;27.676;2023-04-27T00:53:37;98463.41;;;4.92;74.75
64679;BME280;51094;53.864;27.676;2023-04-27T00:56:06;98598.09;;;5.79;74.53
64679;BME280;51094;53.864;27.676;2023-04-27T00:58:33;98617.28;;;5.75;73.61
64679;BME280;51094;53.864;27.676;2023-04-27T01:01:00;98599.72;;;5.53;73.83
64679;BME280;51094;53.864;27.676;2023-04-27T01:03:32;98598.41;;;5.32;74.83
64679;BME280;51094;53.864;27.676;2023-04-27T01:05:59;98549.72;;;4.99;75.09
64679;BME280;51094;53.864;27.676;2023-04-27T01:08:28;98596.13;;;5.42;75.01
64679;BME280;51094;53.864;27.676;2023-04-27T01:10:55;98615.25;;;5.66;75.20
64679;BME280;51094;53.864;27.676;2023-04-27T01:13:21;98606.06;;;5.48;74.03
64679;BME280;51094;53.864;27.676;2023-04-27T01:15:48;98567.94;;;5.24;74.76
64679;BME280;51094;53.864;27.676;2023-04-27T01:18:15;98578.97;;;5.26;74.57
64679;BME280;51094;53.864;27.676;2023-04-27T01:20:42;98601.00;;;5.46;75.52
64679;BME280;51094;53.864;27.676;2023-04-27T01:23:13;98615.09;;;5.55;75.29
64679;BME280;51094;53.864;27.676;2023-04-27T01:25:43;98576.06;;;5.18;75.44
64679;BME280;51094;53.864;27.676;2023-04-27T01:28:09;98623.19;;;5.34;74.83
64679;BME280;51094;53.864;27.676;2023-04-27T01:30:36;98604.19;;;5.21;75.10
64679;BME280;51094;53.864;27.676;2023-04-27T01:33:03;98567.66;;;5.00;76.04
64679;BME280;51094;53.864;27.676;2023-04-27T01:35:30;98629.94;;;5.51;75.82
64679;BME280;51094;53.864;27.676;2023-04-27T01:37:58;98560.28;;;5.23;75.99
64679;BME280;51094;53.864;27.676;2023-04-27T01:40:25;98612.25;;;5.59;74.76
64679;BME280;51094;53.864;27.676;2023-04-27T01:42:52;98519.72;;;4.98;75.19
64679;BME280;51094;53.864;27.676;2023-04-27T01:45:19;98627.16;;;5.54;74.68
64679;BME280;51094;53.864;27.676;2023-04-27T01:47:46;98628.72;;;5.57;75.54
64679;BME280;51094;53.864;27.676;2023-04-27T01:50:13;98620.81;;;5.46;75.25
64679;BME280;51094;53.864;27.676;2023-04-27T01:52:42;98617.75;;;5.53;75.67
64679;BME280;51094;53.864;27.676;2023-04-27T01:55:09;98638.47;;;5.66;75.14
64679;BME280;51094;53.864;27.676;2023-04-27T01:57:36;98612.97;;;5.47;75.68
64679;BME280;51094;53.864;27.676;2023-04-27T02:00:04;98573.66;;;5.29;75.80
64679;BME280;51094;53.864;27.676;2023-04-27T02:02:46;98562.97;;;5.21;75.11
64679;BME280;51094;53.864;27.676;2023-04-27T02:05:13;98611.69;;;5.40;74.60
64679;BME280;51094;53.864;27.676;2023-04-27T02:07:39;98630.75;;;5.52;75.23
64679;BME280;51094;53.864;27.676;2023-04-27T02:10:07;98616.28;;;5.49;75.98
64679;BME280;51094;53.864;27.676;2023-04-27T02:12:34;98641.97;;;5.65;75.13
64679;BME280;51094;53.864;27.676;2023-04-27T02:15:02;98618.59;;;5.54;75.72
64679;BME280;51094;53.864;27.676;2023-04-27T02:17:29;98621.91;;;5.56;75.69
64679;BME280;51094;53.864;27.676;2023-04-27T02:19:58;98670.66;;;5.89;75.64
64679;BME280;51094;53.864;27.676;2023-04-27T02:22:26;98607.72;;;5.49;74.64
64679;BME280;51094;53.864;27.676;2023-04-27T02:24:52;98648.22;;;5.75;76.04
64679;BME280;51094;53.864;27.676;2023-04-27T02:27:19;98590.13;;;5.41;75.85
64679;BME280;51094;53.864;27.676;2023-04-27T02:29:48;98593.72;;;5.39;75.34
64679;BME280;51094;53.864;27.676;2023-04-27T02:32:16;98601.66;;;5.50;75.77
64679;BME280;51094;53.864;27.676;2023-04-27T02:34:43;98594.47;;;5.55;75.81
64679;BME280;51094;53.864;27.676;2023-04-27T02:37:10;98604.59;;;5.58;75.35
64679;BME280;51094;53.864;27.676;2023-04-27T02:39:37;98666.13;;;5.92;75.48
64679;BME280;51094;53.864;27.676;2023-04-27T02:42:05;98648.06;;;5.92;75.29
64679;BME280;51094;53.864;27.676;2023-04-27T02:44:31;98670.78;;;6.14;75.44
64679;BME280;51094;53.864;27.676;2023-04-27T02:46:58;98576.97;;;5.60;75.26
64679;BME280;51094;53.864;27.676;2023-04-27T02:49:25;98682.28;;;6.37;75.42
64679;BME280;51094;53.864;27.676;2023-04-27T02:51:52;98686.94;;;6.18;74.28
64679;BME280;51094;53.864;27.676;2023-04-27T02:54:19;98696.59;;;6.14;75.32
64679;BME280;51094;53.864;27.676;2023-04-27T02:56:45;98681.47;;;6.22;75.31
64679;BME280;51094;53.864;27.676;2023-04-27T02:59:12;98630.75;;;5.94;75.58
64679;BME280;51094;53.864;27.676;2023-04-27T03:01:39;98688.03;;;6.14;74.38
64679;BME280;51094;53.864;27.676;2023-04-27T03:04:06;98646.75;;;5.71;74.95
64679;BME280;51094;53.864;27.676;2023-04-27T03:06:33;98695.59;;;5.88;75.26
64679;BME280;51094;53.864;27.676;2023-04-27T03:09:00;98706.00;;;5.87;75.21
64679;BME280;51094;53.864;27.676;2023-04-27T03:11:27;98636.00;;;5.50;75.72
64679;BME280;51094;53.864;27.676;2023-04-27T03:13:54;98678.41;;;5.89;76.18
64679;BME280;51094;53.864;27.676;2023-04-27T03:16:21;98665.19;;;5.79;75.59
64679;BME280;51094;53.864;27.676;2023-04-27T03:18:48;98699.22;;;6.00;75.58
64679;BME280;51094;53.864;27.676;2023-04-27T03:21:15;98704.38;;;6.00;75.70
64679;BME280;51094;53.864;27.676;2023-04-27T03:23:42;98546.63;;;4.78;74.88
64679;BME280;51094;53.864;27.676;2023-04-27T03:26:10;98706.84;;;5.87;75.92
64679;BME280;51094;53.864;27.676;2023-04-27T03:28:40;98673.66;;;5.67;75.99
64679;BME280;51094;53.864;27.676;2023-04-27T03:31:12;98702.28;;;5.92;75.73
64679;BME280;51094;53.864;27.676;2023-04-27T03:33:39;98649.00;;;5.63;75.50
64679;BME280;51094;53.864;27.676;2023-04-27T03:36:07;98702.91;;;5.96;75.17
64679;BME280;51094;53.864;27.676;2023-04-27T03:38:34;98687.66;;;5.77;74.82
64679;BME280;51094;53.864;27.676;2023-04-27T03:41:01;98667.56;;;5.68;75.60
64679;BME280;51094;53.864;27.676;2023-04-27T03:43:28;98715.13;;;6.07;74.88
64679;BME280;51094;53.864;27.676;2023-04-27T03:45:55;98726.28;;;6.21;75.27
64679;BME280;51094;53.864;27.676;2023-04-27T03:48:23;98731.09;;;6.13;74.60
64679;BME280;51094;53.864;27.676;2023-04-27T03:50:51;98729.00;;;6.06;74.84
64679;BME280;51094;53.864;27.676;2023-04-27T03:53:19;98733.56;;;6.15;75.39
64679;BME280;51094;53.864;27.676;2023-04-27T03:55:47;98736.81;;;6.18;74.61
64679;BME280;51094;53.864;27.676;2023-04-27T03:58:14;98697.63;;;5.83;74.75
64679;BME280;51094;53.864;27.676;2023-04-27T04:01:01;98546.75;;;4.91;74.92
64679;BME280;51094;53.864;27.676;2023-04-27T04:03:28;98668.41;;;5.68;74.57
64679;BME280;51094;53.864;27.676;2023-04-27T04:05:55;98662.06;;;5.74;74.66
64679;BME280;51094;53.864;27.676;2023-04-27T04:08:22;98716.94;;;6.06;74.11
64679;BME280;51094;53.864;27.676;2023-04-27T04:10:48;98695.06;;;5.97;74.59
64679;BME280;51094;53.864;27.676;2023-04-27T04:13:15;98696.09;;;5.95;74.17
64679;BME280;51094;53.864;27.676;2023-04-27T04:15:42;98746.66;;;6.40;75.00
64679;BME280;51094;53.864;27.676;2023-04-27T04:18:09;98742.06;;;6.31;74.04
64679;BME280;51094;53.864;27.676;2023-04-27T04:20:36;98747.31;;;6.29;73.82
64679;BME280;51094;53.864;27.676;2023-04-27T04:23:03;98730.06;;;6.16;73.36
64679;BME280;51094;53.864;27.676;2023-04-27T04:25:30;98731.91;;;6.14;74.20
64679;BME280;51094;53.864;27.676;2023-04-27T04:27:58;98734.41;;;6.29;74.74
64679;BME280;51094;53.864;27.676;2023-04-27T04:30:25;98751.25;;;6.49;74.25
64679;BME280;51094;53.864;27.676;2023-04-27T04:32:51;98656.09;;;6.02;74.10
64679;BME280;51094;53.864;27.676;2023-04-27T04:35:18;98752.78;;;6.52;73.21
64679;BME280;51094;53.864;27.676;2023-04-27T04:37:46;98746.81;;;6.51;73.85
64679;BME280;51094;53.864;27.676;2023-04-27T04:40:18;98733.84;;;6.39;73.39
64679;BME280;51094;53.864;27.676;2023-04-27T04:42:45;98726.94;;;6.39;73.77
64679;BME280;51094;53.864;27.676;2023-04-27T04:45:12;98714.22;;;6.22;73.07
64679;BME280;51094;53.864;27.676;2023-04-27T04:47:39;98754.03;;;6.46;72.83
64679;BME280;51094;53.864;27.676;2023-04-27T04:50:07;98757.78;;;6.55;73.65
64679;BME280;51094;53.864;27.676;2023-04-27T04:52:37;98760.03;;;6.47;72.16
64679;BME280;51094;53.864;27.676;2023-04-27T04:55:05;98699.88;;;6.04;73.17
64679;BME280;51094;53.864;27.676;2023-04-27T04:57:31;98703.63;;;6.12;73.07
64679;BME280;51094;53.864;27.676;2023-04-27T04:59:58;98762.53;;;6.48;72.45
64679;BME280;51094;53.864;27.676;2023-04-27T05:02:25;98762.72;;;6.45;71.46
64679;BME280;51094;53.864;27.676;2023-04-27T05:04:52;98758.47;;;6.30;71.29
64679;BME280;51094;53.864;27.676;2023-04-27T05:07:19;98694.78;;;5.88;71.96
64679;BME280;51094;53.864;27.676;2023-04-27T05:09:50;98749.16;;;6.27;72.18
64679;BME280;51094;53.864;27.676;2023-04-27T05:12:17;98771.09;;;6.49;72.34
64679;BME280;51094;53.864;27.676;2023-04-27T05:14:44;98718.09;;;6.29;71.83
64679;BME280;51094;53.864;27.676;2023-04-27T05:17:11;98754.34;;;6.54;72.13
64679;BME280;51094;53.864;27.676;2023-04-27T05:19:38;98675.22;;;6.12;72.41
64679;BME280;51094;53.864;27.676;2023-04-27T05:22:05;98768.00;;;6.71;71.80
64679;BME280;51094;53.864;27.676;2023-04-27T05:24:32;98765.75;;;6.79;71.35
64679;BME280;51094;53.864;27.676;2023-04-27T05:27:01;98722.97;;;6.19;70.00
64679;BME280;51094;53.864;27.676;2023-04-27T05:29:29;98716.72;;;6.09;70.21
64679;BME280;51094;53.864;27.676;2023-04-27T05:31:59;98766.03;;;6.47;71.72
64679;BME280;51094;53.864;27.676;2023-04-27T05:34:26;98765.59;;;6.67;71.54
64679;BME280;51094;53.864;27.676;2023-04-27T05:36:53;98740.94;;;6.76;71.17
64679;BME280;51094;53.864;27.676;2023-04-27T05:39:19;98766.22;;;6.98;70.92
64679;BME280;51094;53.864;27.676;2023-04-27T05:41:46;98767.34;;;6.94;70.26
64679;BME280;51094;53.864;27.676;2023-04-27T05:44:13;98682.09;;;6.40;70.34
64679;BME280;51094;53.864;27.676;2023-04-27T05:46:40;98777.56;;;6.83;70.37
64679;BME280;51094;53.864;27.676;2023-04-27T05:49:07;98639.38;;;6.08;70.64
64679;BME280;51094;53.864;27.676;2023-04-27T05:51:34;98773.78;;;6.88;69.82
64679;BME280;51094;53.864;27.676;2023-04-27T05:54:01;98784.88;;;6.76;70.03
64679;BME280;51094;53.864;27.676;2023-04-27T05:56:28;98793.19;;;6.67;70.48
64679;BME280;51094;53.864;27.676;2023-04-27T05:58:54;98782.97;;;6.51;70.56
64679;BME280;51094;53.864;27.676;2023-04-27T06:01:21;98794.03;;;6.53;70.82
64679;BME280;51094;53.864;27.676;2023-04-27T06:03:49;98802.56;;;6.41;70.19
64679;BME280;51094;53.864;27.676;2023-04-27T06:06:16;98731.94;;;5.99;70.99
64679;BME280;51094;53.864;27.676;2023-04-27T06:08:46;98773.41;;;6.39;70.55
64679;BME280;51094;53.864;27.676;2023-04-27T06:11:15;98800.19;;;6.65;71.72
64679;BME280;51094;53.864;27.676;2023-04-27T06:13:44;98801.75;;;6.82;71.26
64679;BME280;51094;53.864;27.676;2023-04-27T06:16:12;98768.38;;;6.64;70.49
64679;BME280;51094;53.864;27.676;2023-04-27T06:18:40;98813.00;;;6.81;70.24
64679;BME280;51094;53.864;27.676;2023-04-27T06:21:08;98817.63;;;6.76;69.51
64679;BME280;51094;53.864;27.676;2023-04-27T06:23:40;98731.75;;;6.03;69.66
64679;BME280;51094;53.864;27.676;2023-04-27T06:26:08;98806.84;;;6.55;70.84
64679;BME280;51094;53.864;27.676;2023-04-27T06:28:35;98779.91;;;6.59;71.04
64679;BME280;51094;53.864;27.676;2023-04-27T06:31:02;98735.31;;;6.43;69.90
64679;BME280;51094;53.864;27.676;2023-04-27T06:33:29;98806.56;;;7.00;69.74
64679;BME280;51094;53.864;27.676;2023-04-27T06:35:59;98837.13;;;7.35;69.45
64679;BME280;51094;53.864;27.676;2023-04-27T06:38:31;98833.97;;;7.17;66.97
64679;BME280;51094;53.864;27.676;2023-04-27T06:40:58;98492.28;;;4.83;68.48
64679;BME280;51094;53.864;27.676;2023-04-27T06:43:26;98720.66;;;6.15;68.47
64679;BME280;51094;53.864;27.676;2023-04-27T06:45:55;98831.06;;;6.95;69.18
64679;BME280;51094;53.864;27.676;2023-04-27T06:48:22;98840.53;;;7.09;69.21
64679;BME280;51094;53.864;27.676;2023-04-27T06:50:51;98780.97;;;6.83;68.84
64679;BME280;51094;53.864;27.676;2023-04-27T06:53:20;98829.16;;;7.11;68.42
64679;BME280;51094;53.864;27.676;2023-04-27T06:55:49;98818.44;;;7.17;69.04
64679;BME280;51094;53.864;27.676;2023-04-27T06:58:16;98846.66;;;7.34;68.26
64679;BME280;51094;53.864;27.676;2023-04-27T07:00:43;98860.25;;;7.51;68.43
64679;BME280;51094;53.864;27.676;2023-04-27T07:03:11;98848.81;;;7.80;68.46
64679;BME280;51094;53.864;27.676;2023-04-27T07:05:41;98806.19;;;7.73;67.70
64679;BME280;51094;53.864;27.676;2023-04-27T07:08:08;98826.44;;;7.66;63.89
64679;BME280;51094;53.864;27.676;2023-04-27T07:10:35;98780.38;;;7.19;65.44
64679;BME280;51094;53.864;27.676;2023-04-27T07:13:06;98855.81;;;7.53;65.34
64679;BME280;51094;53.864;27.676;2023-04-27T07:15:35;98855.22;;;7.62;65.21
64679;BME280;51094;53.864;27.676;2023-04-27T07:18:02;98773.91;;;6.99;64.23
64679;BME280;51094;53.864;27.676;2023-04-27T07:20:29;98763.66;;;6.71;63.22
64679;BME280;51094;53.864;27.676;2023-04-27T07:22:58;98861.72;;;7.28;64.44
64679;BME280;51094;53.864;27.676;2023-04-27T07:25:28;98836.44;;;7.19;65.17
64679;BME280;51094;53.864;27.676;2023-04-27T07:27:54;98865.13;;;7.55;65.59
64679;BME280;51094;53.864;27.676;2023-04-27T07:30:28;98864.00;;;7.59;65.00
64679;BME280;51094;53.864;27.676;2023-04-27T07:32:56;98823.81;;;7.54;64.76
64679;BME280;51094;53.864;27.676;2023-04-27T07:35:23;98850.47;;;7.81;64.97
64679;BME280;51094;53.864;27.676;2023-04-27T07:37:50;98865.63;;;8.00;64.72
64679;BME280;51094;53.864;27.676;2023-04-27T07:40:26;98887.38;;;7.97;63.91
64679;BME280;51094;53.864;27.676;2023-04-27T07:42:53;98887.56;;;7.94;64.01
64679;BME280;51094;53.864;27.676;2023-04-27T07:45:22;98886.00;;;7.92;63.91
64679;BME280;51094;53.864;27.676;2023-04-27T07:48:00;98865.13;;;8.08;64.72
64679;BME280;51094;53.864;27.676;2023-04-27T07:50:35;98878.63;;;8.38;63.97
64679;BME280;51094;53.864;27.676;2023-04-27T07:53:04;98830.31;;;8.24;63.69
64679;BME280;51094;53.864;27.676;2023-04-27T07:55:35;98865.69;;;8.63;63.24
64679;BME280;51094;53.864;27.676;2023-04-27T07:58:04;98893.63;;;8.84;62.74
64679;BME280;51094;53.864;27.676;2023-04-27T08:00:31;98784.75;;;8.09;61.56
64679;BME280;51094;53.864;27.676;2023-04-27T08:03:01;98817.50;;;8.23;62.91
64679;BME280;51094;53.864;27.676;2023-04-27T08:05:31;98852.19;;;8.58;60.70
64679;BME280;51094;53.864;27.676;2023-04-27T08:08:00;98835.41;;;8.51;61.64
64679;BME280;51094;53.864;27.676;2023-04-27T08:10:32;98877.13;;;8.97;60.39
64679;BME280;51094;53.864;27.676;2023-04-27T08:12:59;98835.16;;;8.67;58.17
64679;BME280;51094;53.864;27.676;2023-04-27T08:15:26;98897.03;;;8.97;60.71
64679;BME280;51094;53.864;27.676;2023-04-27T08:17:55;98896.03;;;9.11;60.30
64679;BME280;51094;53.864;27.676;2023-04-27T08:20:23;98901.22;;;9.11;59.90
64679;BME280;51094;53.864;27.676;2023-04-27T08:22:52;98904.22;;;9.17;60.07
64679;BME280;51094;53.864;27.676;2023-04-27T08:25:22;98834.00;;;8.84;60.24
64679;BME280;51094;53.864;27.676;2023-04-27T08:27:51;98867.06;;;8.93;59.66
64679;BME280;51094;53.864;27.676;2023-04-27T08:30:20;98877.75;;;8.88;59.03
64679;BME280;51094;53.864;27.676;2023-04-27T08:32:50;98893.28;;;9.01;59.50
64679;BME280;51094;53.864;27.676;2023-04-27T08:35:17;98919.34;;;9.23;58.67
64679;BME280;51094;53.864;27.676;2023-04-27T08:37:43;98925.34;;;9.00;58.64
64679;BME280;51094;53.864;27.676;2023-04-27T08:40:10;98920.19;;;8.75;58.07
64679;BME280;51094;53.864;27.676;2023-04-27T08:42:51;98872.94;;;8.46;59.16
64679;BME280;51094;53.864;27.676;2023-04-27T08:45:21;98873.94;;;8.68;59.41
64679;BME280;51094;53.864;27.676;2023-04-27T08:47:51;98857.28;;;8.60;57.83
64679;BME280;51094;53.864;27.676;2023-04-27T08:50:22;98927.22;;;8.73;57.83
64679;BME280;51094;53.864;27.676;2023-04-27T08:52:49;98932.09;;;8.39;58.36
64679;BME280;51094;53.864;27.676;2023-04-27T08:55:19;98935.13;;;8.58;59.72
64679;BME280;51094;53.864;27.676;2023-04-27T08:57:57;98928.44;;;9.05;59.59
64679;BME280;51094;53.864;27.676;2023-04-27T09:01:12;98941.97;;;9.58;58.81
64679;BME280;51094;53.864;27.676;2023-04-27T09:03:41;98894.31;;;9.59;56.64
64679;BME280;51094;53.864;27.676;2023-04-27T09:06:14;98937.72;;;9.57;55.08
64679;BME280;51094;53.864;27.676;2023-04-27T09:08:47;98935.47;;;9.76;56.98
64679;BME280;51094;53.864;27.676;2023-04-27T09:11:37;98940.91;;;10.43;56.78
64679;BME280;51094;53.864;27.676;2023-04-27T09:14:22;98896.16;;;10.16;53.62
64679;BME280;51094;53.864;27.676;2023-04-27T09:16:56;98947.50;;;10.25;52.31
64679;BME280;51094;53.864;27.676;2023-04-27T09:19:26;98885.13;;;9.66;53.04
64679;BME280;51094;53.864;27.676;2023-04-27T09:22:09;98955.03;;;9.93;54.12
64679;BME280;51094;53.864;27.676;2023-04-27T09:24:53;98944.66;;;10.04;54.58
64679;BME280;51094;53.864;27.676;2023-04-27T09:27:21;98916.47;;;10.11;54.19
64679;BME280;51094;53.864;27.676;2023-04-27T09:29:49;98939.97;;;10.33;53.86
64679;BME280;51094;53.864;27.676;2023-04-27T09:32:16;98915.13;;;10.29;52.07
64679;BME280;51094;53.864;27.676;2023-04-27T09:34:44;98873.41;;;9.84;52.49
64679;BME280;51094;53.864;27.676;2023-04-27T09:37:13;98924.31;;;9.87;51.71
64679;BME280;51094;53.864;27.676;2023-04-27T09:39:41;98871.91;;;9.34;51.93
64679;BME280;51094;53.864;27.676;2023-04-27T09:42:11;98959.50;;;9.67;53.65
64679;BME280;51094;53.864;27.676;2023-04-27T09:44:43;98957.06;;;9.53;53.76
64679;BME280;51094;53.864;27.676;2023-04-27T09:47:12;98824.31;;;8.37;53.99
64679;BME280;51094;53.864;27.676;2023-04-27T09:49:39;98955.38;;;9.15;54.26
64679;BME280;51094;53.864;27.676;2023-04-27T09:52:06;98963.66;;;9.33;54.85
64679;BME280;51094;53.864;27.676;2023-04-27T09:54:39;98932.19;;;9.01;53.49
64679;BME280;51094;53.864;27.676;2023-04-27T10:00:23;98977.41;;;8.84;54.54
64679;BME280;51094;53.864;27.676;2023-04-27T10:03:04;98977.63;;;8.94;53.55
64679;BME280;51094;53.864;27.676;2023-04-27T10:08:39;98979.06;;;8.73;53.79
64679;BME280;51094;53.864;27.676;2023-04-27T10:11:15;98950.25;;;8.52;55.27
64679;BME280;51094;53.864;27.676;2023-04-27T10:13:53;98991.59;;;9.29;55.58
64679;BME280;51094;53.864;27.676;2023-04-27T10:16:21;98990.63;;;9.43;52.50
64679;BME280;51094;53.864;27.676;2023-04-27T10:18:53;98938.09;;;9.40;53.60
64679;BME280;51094;53.864;27.676;2023-04-27T10:21:20;98975.19;;;9.89;52.79
64679;BME280;51094;53.864;27.676;2023-04-27T10:23:49;98981.44;;;9.87;50.22
64679;BME280;51094;53.864;27.676;2023-04-27T10:26:24;98989.09;;;9.64;51.58
64679;BME280;51094;53.864;27.676;2023-04-27T10:29:07;98999.94;;;9.82;51.08
64679;BME280;51094;53.864;27.676;2023-04-27T10:31:42;98976.19;;;9.76;50.34
64679;BME280;51094;53.864;27.676;2023-04-27T10:34:14;98926.56;;;9.67;51.63
64679;BME280;51094;53.864;27.676;2023-04-27T10:36:41;98960.53;;;10.36;52.46
64679;BME280;51094;53.864;27.676;2023-04-27T10:39:18;98989.91;;;10.94;51.32
64679;BME280;51094;53.864;27.676;2023-04-27T10:41:58;98985.88;;;11.34;50.29
64679;BME280;51094;53.864;27.676;2023-04-27T10:44:35;98989.06;;;11.38;50.50
64679;BME280;51094;53.864;27.676;2023-04-27T10:47:15;98982.66;;;11.64;49.18
64679;BME280;51094;53.864;27.676;2023-04-27T10:49:45;98975.72;;;11.97;47.04
64679;BME280;51094;53.864;27.676;2023-04-27T10:52:14;98985.16;;;12.09;47.42
64679;BME280;51094;53.864;27.676;2023-04-27T10:54:44;98846.06;;;11.25;47.06
64679;BME280;51094;53.864;27.676;2023-04-27T10:57:11;98959.97;;;11.98;47.10
64679;BME280;51094;53.864;27.676;2023-04-27T10:59:51;98992.16;;;12.09;45.14
64679;BME280;51094;53.864;27.676;2023-04-27T11:02:26;98956.19;;;11.37;45.73
64679;BME280;51094;53.864;27.676;2023-04-27T11:04:54;98985.28;;;11.31;46.69
64679;BME280;51094;53.864;27.676;2023-04-27T11:07:25;98939.03;;;11.34;48.55
64679;BME280;51094;53.864;27.676;2023-04-27T11:09:53;98973.38;;;11.94;48.61
64679;BME280;51094;53.864;27.676;2023-04-27T11:12:21;98984.66;;;12.36;47.77
64679;BME280;51094;53.864;27.676;2023-04-27T11:14:47;98988.38;;;12.54;44.81
64679;BME280;51094;53.864;27.676;2023-04-27T11:17:14;98912.69;;;12.24;45.82
64679;BME280;51094;53.864;27.676;2023-04-27T11:19:45;98936.59;;;12.29;43.63
64679;BME280;51094;53.864;27.676;2023-04-27T11:22:17;98924.41;;;12.09;44.19
64679;BME280;51094;53.864;27.676;2023-04-27T11:24:45;98897.47;;;11.87;43.42
64679;BME280;51094;53.864;27.676;2023-04-27T11:27:13;98936.00;;;12.25;44.61
64679;BME280;51094;53.864;27.676;2023-04-27T11:29:40;98941.25;;;13.07;43.97
64679;BME280;51094;53.864;27.676;2023-04-27T11:32:07;98937.56;;;13.40;43.69
64679;BME280;51094;53.864;27.676;2023-04-27T11:34:34;98918.47;;;14.17;44.21
64679;BME280;51094;53.864;27.676;2023-04-27T11:37:05;99002.13;;;14.36;42.82
64679;BME280;51094;53.864;27.676;2023-04-27T11:39:44;98982.19;;;13.96;43.53
64679;BME280;51094;53.864;27.676;2023-04-27T11:42:18;98971.03;;;13.75;42.83
64679;BME280;51094;53.864;27.676;2023-04-27T11:47:26;98980.94;;;18.03;39.53
64679;BME280;51094;53.864;27.676;2023-04-27T11:49:57;98950.53;;;20.74;30.60
64679;BME280;51094;53.864;27.676;2023-04-27T11:52:31;98973.31;;;23.32;32.92
64679;BME280;51094;53.864;27.676;2023-04-27T11:55:11;98941.28;;;25.00;28.65
64679;BME280;51094;53.864;27.676;2023-04-27T11:57:57;98941.44;;;27.19;25.19
64679;BME280;51094;53.864;27.676;2023-04-27T12:00:32;98931.72;;;29.71;18.94
64679;BME280;51094;53.864;27.676;2023-04-27T12:03:10;98947.72;;;23.66;21.34
64679;BME280;51094;53.864;27.676;2023-04-27T12:05:50;98963.50;;;22.98;25.81
64679;BME280;51094;53.864;27.676;2023-04-27T12:08:28;98880.69;;;26.41;23.43
64679;BME280;51094;53.864;27.676;2023-04-27T12:11:05;98963.78;;;24.71;20.84
64679;BME280;51094;53.864;27.676;2023-04-27T12:13:49;98971.84;;;21.02;25.77
64679;BME280;51094;53.864;27.676;2023-04-27T12:16:17;98903.97;;;18.41;28.21
64679;BME280;51094;53.864;27.676;2023-04-27T12:18:48;98960.09;;;17.09;31.49
64679;BME280;51094;53.864;27.676;2023-04-27T12:21:17;98983.16;;;15.92;32.95
64679;BME280;51094;53.864;27.676;2023-04-27T12:23:48;98949.53;;;15.05;35.16
64679;BME280;51094;53.864;27.676;2023-04-27T12:26:25;98982.53;;;15.53;33.91
64679;BME280;51094;53.864;27.676;2023-04-27T12:28:59;98983.44;;;14.50;36.34
64679;BME280;51094;53.864;27.676;2023-04-27T12:31:31;98984.41;;;14.11;37.31
64679;BME280;51094;53.864;27.676;2023-04-27T12:34:09;98998.28;;;13.82;37.97
64679;BME280;51094;53.864;27.676;2023-04-27T12:36:36;98992.94;;;13.34;37.46
64679;BME280;51094;53.864;27.676;2023-04-27T12:39:26;98936.34;;;12.32;39.18
64679;BME280;51094;53.864;27.676;2023-04-27T12:41:55;98977.47;;;12.28;39.89
64679;BME280;51094;53.864;27.676;2023-04-27T12:44:23;99014.38;;;11.81;41.90
64679;BME280;51094;53.864;27.676;2023-04-27T12:47:00;99000.22;;;11.18;41.40
64679;BME280;51094;53.864;27.676;2023-04-27T12:49:27;98945.88;;;10.46;41.29
64679;BME280;51094;53.864;27.676;2023-04-27T12:51:57;99017.09;;;10.79;40.32
64679;BME280;51094;53.864;27.676;2023-04-27T12:54:23;99023.88;;;11.04;41.26
64679;BME280;51094;53.864;27.676;2023-04-27T12:56:50;99022.81;;;11.51;40.10
64679;BME280;51094;53.864;27.676;2023-04-27T12:59:17;99020.50;;;11.91;40.72
64679;BME280;51094;53.864;27.676;2023-04-27T13:01:46;99025.78;;;12.12;39.07
64679;BME280;51094;53.864;27.676;2023-04-27T13:04:17;98924.69;;;11.94;37.75
64679;BME280;51094;53.864;27.676;2023-04-27T13:06:50;99016.34;;;12.94;37.49
64679;BME280;51094;53.864;27.676;2023-04-27T13:09:37;99022.56;;;13.23;38.32
64679;BME280;51094;53.864;27.676;2023-04-27T13:12:23;99019.19;;;14.02;37.00
64679;BME280;51094;53.864;27.676;2023-04-27T13:14:50;98853.56;;;13.54;36.24
64679;BME280;51094;53.864;27.676;2023-04-27T13:17:17;99011.38;;;15.53;35.34
64679;BME280;51094;53.864;27.676;2023-04-27T13:19:44;99001.28;;;17.42;31.02